sensor_id;sensor_type;location;lat;lon;timestamp;temperature;humidity
2851;DHT22;1433;49.976;8.342;2023-10-08T00:01:04;14.90;99.90
2851;DHT22;1433;49.976;8.342;2023-10-08T00:03:32;15.00;99.90
2851;DHT22;1433;49.976;8.342;2023-10-08T00:06:04;15.00;99.90
2851;DHT22;1433;49.976;8.342;2023-10-08T00:08:33;15.00;99.90
2851;DHT22;1433;49.976;8.342;2023-10-08T00:10:59;15.10;99.90
2851;DHT22;1433;49.976;8.342;2023-10-08T00:13:27;15.20;99.90
2851;DHT22;1433;49.976;8.342;2023-10-08T00:15:55;15.20;99.90
2851;DHT22;1433;49.976;8.342;2023-10-08T00:18:22;15.10;99.90
2851;DHT22;1433;49.976;8.342;2023-10-08T00:20:50;15.20;99.90
2851;DHT22;1433;49.976;8.342;2023-10-08T00:23:27;15.20;99.90
2851;DHT22;1433;49.976;8.342;2023-10-08T00:25:54;15.20;99.90
2851;DHT22;1433;49.976;8.342;2023-10-08T00:28:21;15.30;99.90
2851;DHT22;1433;49.976;8.342;2023-10-08T00:30:47;15.30;99.90
2851;DHT22;1433;49.976;8.342;2023-10-08T00:33:18;15.40;99.90
2851;DHT22;1433;49.976;8.342;2023-10-08T00:35:44;15.40;99.90
2851;DHT22;1433;49.976;8.342;2023-10-08T00:38:11;15.50;99.90
2851;DHT22;1433;49.976;8.342;2023-10-08T00:40:41;15.60;99.90
2851;DHT22;1433;49.976;8.342;2023-10-08T00:43:33;15.60;99.90
2851;DHT22;1433;49.976;8.342;2023-10-08T00:46:02;15.60;99.90
2851;DHT22;1433;49.976;8.342;2023-10-08T00:48:30;15.70;99.90
2851;DHT22;1433;49.976;8.342;2023-10-08T00:50:58;15.70;99.90
2851;DHT22;1433;49.976;8.342;2023-10-08T00:53:26;15.70;99.90
2851;DHT22;1433;49.976;8.342;2023-10-08T00:55:54;15.70;99.90
2851;DHT22;1433;49.976;8.342;2023-10-08T00:58:22;15.80;99.90
2851;DHT22;1433;49.976;8.342;2023-10-08T01:00:54;15.80;99.90
2851;DHT22;1433;49.976;8.342;2023-10-08T01:03:22;15.80;99.90
2851;DHT22;1433;49.976;8.342;2023-10-08T01:05:49;15.80;99.90
2851;DHT22;1433;49.976;8.342;2023-10-08T01:08:18;15.80;99.90
2851;DHT22;1433;49.976;8.342;2023-10-08T01:10:52;15.80;99.90
2851;DHT22;1433;49.976;8.342;2023-10-08T01:13:20;15.80;99.90
2851;DHT22;1433;49.976;8.342;2023-10-08T01:15:47;15.90;99.90
2851;DHT22;1433;49.976;8.342;2023-10-08T01:18:15;15.90;99.90
2851;DHT22;1433;49.976;8.342;2023-10-08T01:23:14;15.90;99.90
2851;DHT22;1433;49.976;8.342;2023-10-08T01:25:43;16.00;99.90
2851;DHT22;1433;49.976;8.342;2023-10-08T01:28:12;16.00;99.90
2851;DHT22;1433;49.976;8.342;2023-10-08T01:30:43;16.00;99.90
2851;DHT22;1433;49.976;8.342;2023-10-08T01:33:14;16.10;99.90
2851;DHT22;1433;49.976;8.342;2023-10-08T01:35:43;16.10;99.90
2851;DHT22;1433;49.976;8.342;2023-10-08T01:38:09;16.10;99.90
2851;DHT22;1433;49.976;8.342;2023-10-08T01:40:40;16.10;99.90
2851;DHT22;1433;49.976;8.342;2023-10-08T01:43:07;16.10;99.90
2851;DHT22;1433;49.976;8.342;2023-10-08T01:45:36;16.20;99.90
2851;DHT22;1433;49.976;8.342;2023-10-08T01:48:05;16.20;99.90
2851;DHT22;1433;49.976;8.342;2023-10-08T01:50:31;16.20;99.90
2851;DHT22;1433;49.976;8.342;2023-10-08T01:53:00;16.20;99.90
2851;DHT22;1433;49.976;8.342;2023-10-08T01:55:27;16.10;99.90
2851;DHT22;1433;49.976;8.342;2023-10-08T01:57:55;16.10;99.90
2851;DHT22;1433;49.976;8.342;2023-10-08T02:00:22;16.10;99.90
2851;DHT22;1433;49.976;8.342;2023-10-08T02:02:50;16.10;99.90
2851;DHT22;1433;49.976;8.342;2023-10-08T02:05:17;16.10;99.90
2851;DHT22;1433;49.976;8.342;2023-10-08T02:07:45;16.00;99.90
2851;DHT22;1433;49.976;8.342;2023-10-08T02:10:12;16.00;99.90
2851;DHT22;1433;49.976;8.342;2023-10-08T02:12:41;16.00;99.90
2851;DHT22;1433;49.976;8.342;2023-10-08T02:15:08;15.90;99.90
2851;DHT22;1433;49.976;8.342;2023-10-08T02:17:37;15.90;99.90
2851;DHT22;1433;49.976;8.342;2023-10-08T02:20:05;15.80;99.90
2851;DHT22;1433;49.976;8.342;2023-10-08T02:22:32;15.80;99.90
2851;DHT22;1433;49.976;8.342;2023-10-08T02:24:59;15.80;99.90
2851;DHT22;1433;49.976;8.342;2023-10-08T02:27:29;15.70;99.90
2851;DHT22;1433;49.976;8.342;2023-10-08T02:29:57;15.70;99.90
2851;DHT22;1433;49.976;8.342;2023-10-08T02:32:23;15.70;99.90
2851;DHT22;1433;49.976;8.342;2023-10-08T02:34:50;15.70;99.90
2851;DHT22;1433;49.976;8.342;2023-10-08T02:37:19;15.70;99.90
2851;DHT22;1433;49.976;8.342;2023-10-08T02:39:45;15.60;99.90
2851;DHT22;1433;49.976;8.342;2023-10-08T02:42:12;15.60;99.90
2851;DHT22;1433;49.976;8.342;2023-10-08T02:44:40;15.60;99.90
2851;DHT22;1433;49.976;8.342;2023-10-08T02:47:09;15.50;99.90
2851;DHT22;1433;49.976;8.342;2023-10-08T02:49:37;15.40;99.90
2851;DHT22;1433;49.976;8.342;2023-10-08T02:52:06;15.30;99.90
2851;DHT22;1433;49.976;8.342;2023-10-08T02:54:34;15.20;99.90
2851;DHT22;1433;49.976;8.342;2023-10-08T02:57:04;15.20;99.90
2851;DHT22;1433;49.976;8.342;2023-10-08T02:59:32;15.10;99.90
2851;DHT22;1433;49.976;8.342;2023-10-08T03:02:08;15.00;99.90
2851;DHT22;1433;49.976;8.342;2023-10-08T03:04:38;15.00;99.90
2851;DHT22;1433;49.976;8.342;2023-10-08T03:07:05;14.90;99.90
2851;DHT22;1433;49.976;8.342;2023-10-08T03:09:33;15.00;99.90
2851;DHT22;1433;49.976;8.342;2023-10-08T03:11:59;14.90;99.90
2851;DHT22;1433;49.976;8.342;2023-10-08T03:14:26;15.00;99.90
2851;DHT22;1433;49.976;8.342;2023-10-08T03:16:54;15.00;99.90
2851;DHT22;1433;49.976;8.342;2023-10-08T03:19:22;15.00;99.90
2851;DHT22;1433;49.976;8.342;2023-10-08T03:21:50;14.90;99.90
2851;DHT22;1433;49.976;8.342;2023-10-08T03:24:23;14.90;99.90
2851;DHT22;1433;49.976;8.342;2023-10-08T03:27:01;14.90;99.90
2851;DHT22;1433;49.976;8.342;2023-10-08T03:29:37;14.90;99.90
2851;DHT22;1433;49.976;8.342;2023-10-08T03:32:11;14.80;99.90
2851;DHT22;1433;49.976;8.342;2023-10-08T03:34:46;14.70;99.90
2851;DHT22;1433;49.976;8.342;2023-10-08T03:37:14;14.60;99.90
2851;DHT22;1433;49.976;8.342;2023-10-08T03:39:44;14.60;99.90
2851;DHT22;1433;49.976;8.342;2023-10-08T03:42:27;14.50;99.90
2851;DHT22;1433;49.976;8.342;2023-10-08T03:44:58;14.40;99.90
2851;DHT22;1433;49.976;8.342;2023-10-08T03:47:26;14.40;99.90
2851;DHT22;1433;49.976;8.342;2023-10-08T03:49:52;14.40;99.90
2851;DHT22;1433;49.976;8.342;2023-10-08T03:52:20;14.40;99.90
2851;DHT22;1433;49.976;8.342;2023-10-08T03:54:52;14.40;99.90
2851;DHT22;1433;49.976;8.342;2023-10-08T03:57:23;14.40;99.90
2851;DHT22;1433;49.976;8.342;2023-10-08T03:59:54;14.40;99.90
2851;DHT22;1433;49.976;8.342;2023-10-08T04:02:22;14.40;99.90
2851;DHT22;1433;49.976;8.342;2023-10-08T04:04:50;14.40;99.90
2851;DHT22;1433;49.976;8.342;2023-10-08T04:07:19;14.40;99.90
2851;DHT22;1433;49.976;8.342;2023-10-08T04:09:59;14.30;99.90
2851;DHT22;1433;49.976;8.342;2023-10-08T04:12:36;14.20;99.90
2851;DHT22;1433;49.976;8.342;2023-10-08T04:15:06;14.20;99.90
2851;DHT22;1433;49.976;8.342;2023-10-08T04:17:35;14.10;99.90
2851;DHT22;1433;49.976;8.342;2023-10-08T04:20:15;14.10;99.90
2851;DHT22;1433;49.976;8.342;2023-10-08T04:23:00;14.10;99.90
2851;DHT22;1433;49.976;8.342;2023-10-08T04:25:30;14.00;99.90
2851;DHT22;1433;49.976;8.342;2023-10-08T04:27:58;14.00;99.90
2851;DHT22;1433;49.976;8.342;2023-10-08T04:30:33;14.00;99.90
2851;DHT22;1433;49.976;8.342;2023-10-08T04:33:01;14.00;99.90
2851;DHT22;1433;49.976;8.342;2023-10-08T04:35:42;14.10;99.90
2851;DHT22;1433;49.976;8.342;2023-10-08T04:38:15;14.10;99.90
2851;DHT22;1433;49.976;8.342;2023-10-08T04:40:45;14.10;99.90
2851;DHT22;1433;49.976;8.342;2023-10-08T04:43:15;14.20;99.90
2851;DHT22;1433;49.976;8.342;2023-10-08T04:45:45;14.20;99.90
2851;DHT22;1433;49.976;8.342;2023-10-08T04:48:12;14.20;99.90
2851;DHT22;1433;49.976;8.342;2023-10-08T04:50:40;14.20;99.90
2851;DHT22;1433;49.976;8.342;2023-10-08T04:53:08;14.20;99.90
2851;DHT22;1433;49.976;8.342;2023-10-08T04:55:35;14.20;99.90
2851;DHT22;1433;49.976;8.342;2023-10-08T04:58:03;14.20;99.90
2851;DHT22;1433;49.976;8.342;2023-10-08T05:00:32;14.20;99.90
2851;DHT22;1433;49.976;8.342;2023-10-08T05:03:09;14.20;99.90
2851;DHT22;1433;49.976;8.342;2023-10-08T05:05:42;14.20;99.90
2851;DHT22;1433;49.976;8.342;2023-10-08T05:08:23;14.20;99.90
2851;DHT22;1433;49.976;8.342;2023-10-08T05:10:57;14.20;99.90
2851;DHT22;1433;49.976;8.342;2023-10-08T05:13:31;14.20;99.90
2851;DHT22;1433;49.976;8.342;2023-10-08T05:15:59;14.20;99.90
2851;DHT22;1433;49.976;8.342;2023-10-08T05:18:30;14.20;99.90
2851;DHT22;1433;49.976;8.342;2023-10-08T05:21:15;14.10;99.90
2851;DHT22;1433;49.976;8.342;2023-10-08T05:23:43;14.10;99.90
2851;DHT22;1433;49.976;8.342;2023-10-08T05:26:11;14.10;99.90
2851;DHT22;1433;49.976;8.342;2023-10-08T05:28:40;14.10;99.90
2851;DHT22;1433;49.976;8.342;2023-10-08T05:31:14;14.10;99.90
2851;DHT22;1433;49.976;8.342;2023-10-08T05:33:48;14.10;99.90
2851;DHT22;1433;49.976;8.342;2023-10-08T05:36:34;14.10;99.90
2851;DHT22;1433;49.976;8.342;2023-10-08T05:39:06;14.10;99.90
2851;DHT22;1433;49.976;8.342;2023-10-08T05:41:48;14.20;99.90
2851;DHT22;1433;49.976;8.342;2023-10-08T05:44:23;14.20;99.90
2851;DHT22;1433;49.976;8.342;2023-10-08T05:47:07;14.20;99.90
2851;DHT22;1433;49.976;8.342;2023-10-08T05:49:52;14.30;99.90
2851;DHT22;1433;49.976;8.342;2023-10-08T05:52:52;14.40;99.90
2851;DHT22;1433;49.976;8.342;2023-10-08T05:55:31;14.40;99.90
2851;DHT22;1433;49.976;8.342;2023-10-08T05:58:08;14.40;99.90
2851;DHT22;1433;49.976;8.342;2023-10-08T06:00:49;14.40;99.90
2851;DHT22;1433;49.976;8.342;2023-10-08T06:03:37;14.40;99.90
2851;DHT22;1433;49.976;8.342;2023-10-08T06:06:34;14.40;99.90
2851;DHT22;1433;49.976;8.342;2023-10-08T06:09:07;14.30;99.90
2851;DHT22;1433;49.976;8.342;2023-10-08T06:11:39;14.20;99.90
2851;DHT22;1433;49.976;8.342;2023-10-08T06:14:16;14.10;99.90
2851;DHT22;1433;49.976;8.342;2023-10-08T06:16:44;14.00;99.90
2851;DHT22;1433;49.976;8.342;2023-10-08T06:19:24;14.00;99.90
2851;DHT22;1433;49.976;8.342;2023-10-08T06:21:51;14.00;99.90
2851;DHT22;1433;49.976;8.342;2023-10-08T06:24:19;14.00;99.90
2851;DHT22;1433;49.976;8.342;2023-10-08T06:26:54;14.00;99.90
2851;DHT22;1433;49.976;8.342;2023-10-08T06:29:29;14.00;99.90
2851;DHT22;1433;49.976;8.342;2023-10-08T06:31:57;14.00;99.90
2851;DHT22;1433;49.976;8.342;2023-10-08T06:34:29;14.00;99.90
2851;DHT22;1433;49.976;8.342;2023-10-08T06:37:02;14.10;99.90
2851;DHT22;1433;49.976;8.342;2023-10-08T06:39:31;14.10;99.90
2851;DHT22;1433;49.976;8.342;2023-10-08T06:42:05;14.20;99.90
2851;DHT22;1433;49.976;8.342;2023-10-08T06:44:40;14.20;99.90
2851;DHT22;1433;49.976;8.342;2023-10-08T06:47:13;14.30;99.90
2851;DHT22;1433;49.976;8.342;2023-10-08T06:49:42;14.40;99.90
2851;DHT22;1433;49.976;8.342;2023-10-08T06:52:09;14.50;99.90
2851;DHT22;1433;49.976;8.342;2023-10-08T06:54:40;14.70;99.90
2851;DHT22;1433;49.976;8.342;2023-10-08T06:57:06;14.80;99.90
2851;DHT22;1433;49.976;8.342;2023-10-08T06:59:34;14.90;99.90
2851;DHT22;1433;49.976;8.342;2023-10-08T07:02:00;15.00;99.90
2851;DHT22;1433;49.976;8.342;2023-10-08T07:04:27;15.20;99.90
2851;DHT22;1433;49.976;8.342;2023-10-08T07:06:55;15.30;99.90
2851;DHT22;1433;49.976;8.342;2023-10-08T07:09:21;15.40;99.90
2851;DHT22;1433;49.976;8.342;2023-10-08T07:11:50;15.60;99.90
2851;DHT22;1433;49.976;8.342;2023-10-08T07:14:22;15.70;99.90
2851;DHT22;1433;49.976;8.342;2023-10-08T07:17:03;15.80;99.90
2851;DHT22;1433;49.976;8.342;2023-10-08T07:19:31;15.90;99.90
2851;DHT22;1433;49.976;8.342;2023-10-08T07:22:07;16.00;99.90
2851;DHT22;1433;49.976;8.342;2023-10-08T07:24:44;16.10;99.90
2851;DHT22;1433;49.976;8.342;2023-10-08T07:27:12;16.20;99.90
2851;DHT22;1433;49.976;8.342;2023-10-08T07:29:39;16.30;99.90
2851;DHT22;1433;49.976;8.342;2023-10-08T07:32:07;16.40;99.90
2851;DHT22;1433;49.976;8.342;2023-10-08T07:34:37;16.50;99.90
2851;DHT22;1433;49.976;8.342;2023-10-08T07:37:03;16.60;99.90
2851;DHT22;1433;49.976;8.342;2023-10-08T07:39:32;16.70;99.90
2851;DHT22;1433;49.976;8.342;2023-10-08T07:42:00;16.90;99.90
2851;DHT22;1433;49.976;8.342;2023-10-08T07:44:28;16.90;99.90
2851;DHT22;1433;49.976;8.342;2023-10-08T07:46:56;17.00;99.90
2851;DHT22;1433;49.976;8.342;2023-10-08T07:49:24;17.10;99.90
2851;DHT22;1433;49.976;8.342;2023-10-08T07:51:59;17.10;99.90
2851;DHT22;1433;49.976;8.342;2023-10-08T07:54:27;17.10;99.90
2851;DHT22;1433;49.976;8.342;2023-10-08T07:56:54;17.20;99.90
2851;DHT22;1433;49.976;8.342;2023-10-08T07:59:26;17.20;99.90
2851;DHT22;1433;49.976;8.342;2023-10-08T08:01:52;17.30;99.90
2851;DHT22;1433;49.976;8.342;2023-10-08T08:04:20;17.40;99.90
2851;DHT22;1433;49.976;8.342;2023-10-08T08:06:50;17.50;99.90
2851;DHT22;1433;49.976;8.342;2023-10-08T08:09:18;17.60;99.90
2851;DHT22;1433;49.976;8.342;2023-10-08T08:11:49;17.60;99.90
2851;DHT22;1433;49.976;8.342;2023-10-08T08:14:16;17.70;99.90
2851;DHT22;1433;49.976;8.342;2023-10-08T08:16:44;17.80;99.90
2851;DHT22;1433;49.976;8.342;2023-10-08T08:19:17;17.90;99.90
2851;DHT22;1433;49.976;8.342;2023-10-08T08:21:46;17.90;99.90
2851;DHT22;1433;49.976;8.342;2023-10-08T08:24:13;18.00;99.90
2851;DHT22;1433;49.976;8.342;2023-10-08T08:26:42;18.20;99.90
2851;DHT22;1433;49.976;8.342;2023-10-08T08:29:13;18.40;99.90
2851;DHT22;1433;49.976;8.342;2023-10-08T08:31:41;18.50;99.90
2851;DHT22;1433;49.976;8.342;2023-10-08T08:34:09;18.50;99.90
2851;DHT22;1433;49.976;8.342;2023-10-08T08:36:37;18.30;99.90
2851;DHT22;1433;49.976;8.342;2023-10-08T08:39:05;18.20;99.90
2851;DHT22;1433;49.976;8.342;2023-10-08T08:41:38;18.20;99.90
2851;DHT22;1433;49.976;8.342;2023-10-08T08:44:05;18.20;99.90
2851;DHT22;1433;49.976;8.342;2023-10-08T08:46:35;18.30;99.90
2851;DHT22;1433;49.976;8.342;2023-10-08T08:49:05;18.20;99.90
2851;DHT22;1433;49.976;8.342;2023-10-08T08:51:35;18.30;99.90
2851;DHT22;1433;49.976;8.342;2023-10-08T08:54:02;18.30;99.90
2851;DHT22;1433;49.976;8.342;2023-10-08T08:56:36;18.40;99.90
2851;DHT22;1433;49.976;8.342;2023-10-08T08:59:05;18.50;99.90
2851;DHT22;1433;49.976;8.342;2023-10-08T09:01:32;18.70;99.90
2851;DHT22;1433;49.976;8.342;2023-10-08T09:04:03;18.80;99.90
2851;DHT22;1433;49.976;8.342;2023-10-08T09:06:35;18.90;99.90
2851;DHT22;1433;49.976;8.342;2023-10-08T09:09:05;18.90;1.00
2851;DHT22;1433;49.976;8.342;2023-10-08T09:11:52;18.80;1.00
2851;DHT22;1433;49.976;8.342;2023-10-08T09:14:22;18.90;1.00
2851;DHT22;1433;49.976;8.342;2023-10-08T09:16:55;18.90;1.00
2851;DHT22;1433;49.976;8.342;2023-10-08T09:19:24;19.00;1.00
2851;DHT22;1433;49.976;8.342;2023-10-08T09:22:08;19.00;1.00
2851;DHT22;1433;49.976;8.342;2023-10-08T09:24:41;19.00;1.00
2851;DHT22;1433;49.976;8.342;2023-10-08T09:27:10;18.90;1.00
2851;DHT22;1433;49.976;8.342;2023-10-08T09:29:46;19.10;1.00
2851;DHT22;1433;49.976;8.342;2023-10-08T09:32:16;19.30;1.00
2851;DHT22;1433;49.976;8.342;2023-10-08T09:34:46;19.50;99.90
2851;DHT22;1433;49.976;8.342;2023-10-08T09:37:14;19.70;99.90
2851;DHT22;1433;49.976;8.342;2023-10-08T09:39:41;20.00;99.90
2851;DHT22;1433;49.976;8.342;2023-10-08T09:42:11;20.10;99.90
2851;DHT22;1433;49.976;8.342;2023-10-08T09:44:40;20.00;99.90
2851;DHT22;1433;49.976;8.342;2023-10-08T09:47:09;19.90;99.90
2851;DHT22;1433;49.976;8.342;2023-10-08T09:49:40;20.10;1.00
2851;DHT22;1433;49.976;8.342;2023-10-08T09:52:09;20.00;99.90
2851;DHT22;1433;49.976;8.342;2023-10-08T09:55:05;19.90;1.00
2851;DHT22;1433;49.976;8.342;2023-10-08T09:57:28;19.90;99.90
2851;DHT22;1433;49.976;8.342;2023-10-08T09:59:55;20.10;99.90
2851;DHT22;1433;49.976;8.342;2023-10-08T10:02:23;20.10;1.00
2851;DHT22;1433;49.976;8.342;2023-10-08T10:04:54;20.20;99.90
2851;DHT22;1433;49.976;8.342;2023-10-08T10:07:21;20.40;99.90
2851;DHT22;1433;49.976;8.342;2023-10-08T10:09:51;20.50;1.00
2851;DHT22;1433;49.976;8.342;2023-10-08T10:12:24;20.70;99.90
2851;DHT22;1433;49.976;8.342;2023-10-08T10:14:54;21.00;1.00
2851;DHT22;1433;49.976;8.342;2023-10-08T10:17:28;21.30;53.00
2851;DHT22;1433;49.976;8.342;2023-10-08T10:19:55;21.30;1.00
2851;DHT22;1433;49.976;8.342;2023-10-08T10:22:32;21.00;1.00
2851;DHT22;1433;49.976;8.342;2023-10-08T10:25:01;21.00;99.90
2851;DHT22;1433;49.976;8.342;2023-10-08T10:27:33;21.00;63.70
2851;DHT22;1433;49.976;8.342;2023-10-08T10:30:03;21.10;1.00
2851;DHT22;1433;49.976;8.342;2023-10-08T10:32:32;21.10;99.90
2851;DHT22;1433;49.976;8.342;2023-10-08T10:35:00;21.40;1.00
2851;DHT22;1433;49.976;8.342;2023-10-08T10:37:29;21.30;1.00
2851;DHT22;1433;49.976;8.342;2023-10-08T10:39:57;21.40;1.00
2851;DHT22;1433;49.976;8.342;2023-10-08T10:42:27;21.70;1.00
2851;DHT22;1433;49.976;8.342;2023-10-08T10:44:56;21.90;99.90
2851;DHT22;1433;49.976;8.342;2023-10-08T10:47:24;21.50;99.90
2851;DHT22;1433;49.976;8.342;2023-10-08T10:49:54;21.40;22.40
2851;DHT22;1433;49.976;8.342;2023-10-08T10:52:33;21.60;36.30
2851;DHT22;1433;49.976;8.342;2023-10-08T10:55:14;21.90;83.70
2851;DHT22;1433;49.976;8.342;2023-10-08T10:57:51;22.10;1.00
2851;DHT22;1433;49.976;8.342;2023-10-08T11:00:23;22.10;1.00
2851;DHT22;1433;49.976;8.342;2023-10-08T11:03:01;22.50;99.90
2851;DHT22;1433;49.976;8.342;2023-10-08T11:05:33;22.80;99.90
2851;DHT22;1433;49.976;8.342;2023-10-08T11:08:03;23.10;99.90
2851;DHT22;1433;49.976;8.342;2023-10-08T11:10:34;23.40;1.00
2851;DHT22;1433;49.976;8.342;2023-10-08T11:13:06;23.90;1.00
2851;DHT22;1433;49.976;8.342;2023-10-08T11:15:34;23.00;1.00
2851;DHT22;1433;49.976;8.342;2023-10-08T11:18:13;22.80;1.00
2851;DHT22;1433;49.976;8.342;2023-10-08T11:20:43;22.70;1.00
2851;DHT22;1433;49.976;8.342;2023-10-08T11:23:33;22.90;1.00
2851;DHT22;1433;49.976;8.342;2023-10-08T11:26:01;22.80;1.00
2851;DHT22;1433;49.976;8.342;2023-10-08T11:28:32;23.00;1.00
2851;DHT22;1433;49.976;8.342;2023-10-08T11:31:10;23.20;1.00
2851;DHT22;1433;49.976;8.342;2023-10-08T11:33:38;22.80;1.00
2851;DHT22;1433;49.976;8.342;2023-10-08T11:36:07;22.70;1.00
2851;DHT22;1433;49.976;8.342;2023-10-08T11:38:45;22.30;99.90
2851;DHT22;1433;49.976;8.342;2023-10-08T11:41:17;22.60;1.00
2851;DHT22;1433;49.976;8.342;2023-10-08T11:43:50;22.30;1.00
2851;DHT22;1433;49.976;8.342;2023-10-08T11:46:27;22.70;99.90
2851;DHT22;1433;49.976;8.342;2023-10-08T11:49:04;23.10;54.80
2851;DHT22;1433;49.976;8.342;2023-10-08T11:51:32;23.40;1.00
2851;DHT22;1433;49.976;8.342;2023-10-08T11:54:02;23.40;99.90
2851;DHT22;1433;49.976;8.342;2023-10-08T11:56:31;23.60;1.00
2851;DHT22;1433;49.976;8.342;2023-10-08T11:59:01;23.90;1.00
2851;DHT22;1433;49.976;8.342;2023-10-08T12:01:29;24.00;1.00
2851;DHT22;1433;49.976;8.342;2023-10-08T12:03:58;24.40;1.00
2851;DHT22;1433;49.976;8.342;2023-10-08T12:06:25;24.50;1.00
2851;DHT22;1433;49.976;8.342;2023-10-08T12:08:54;24.60;38.80
2851;DHT22;1433;49.976;8.342;2023-10-08T12:11:22;24.70;1.00
2851;DHT22;1433;49.976;8.342;2023-10-08T12:13:50;24.90;1.00
2851;DHT22;1433;49.976;8.342;2023-10-08T12:16:17;25.10;1.00
2851;DHT22;1433;49.976;8.342;2023-10-08T12:18:45;24.90;1.00
2851;DHT22;1433;49.976;8.342;2023-10-08T12:21:14;24.60;1.00
2851;DHT22;1433;49.976;8.342;2023-10-08T12:23:42;24.60;1.00
2851;DHT22;1433;49.976;8.342;2023-10-08T12:26:13;25.10;99.90
2851;DHT22;1433;49.976;8.342;2023-10-08T12:28:48;24.70;1.00
2851;DHT22;1433;49.976;8.342;2023-10-08T12:31:18;24.70;1.00
2851;DHT22;1433;49.976;8.342;2023-10-08T12:33:46;25.40;1.00
2851;DHT22;1433;49.976;8.342;2023-10-08T12:36:13;25.40;1.00
2851;DHT22;1433;49.976;8.342;2023-10-08T12:38:42;25.70;1.00
2851;DHT22;1433;49.976;8.342;2023-10-08T12:41:10;26.00;1.00
2851;DHT22;1433;49.976;8.342;2023-10-08T12:43:42;26.10;1.00
2851;DHT22;1433;49.976;8.342;2023-10-08T12:46:13;26.50;1.00
2851;DHT22;1433;49.976;8.342;2023-10-08T12:48:47;26.40;1.00
2851;DHT22;1433;49.976;8.342;2023-10-08T12:51:16;26.50;65.80
2851;DHT22;1433;49.976;8.342;2023-10-08T12:53:42;26.70;1.00
2851;DHT22;1433;49.976;8.342;2023-10-08T12:56:10;26.10;1.00
2851;DHT22;1433;49.976;8.342;2023-10-08T12:58:43;26.00;1.00
2851;DHT22;1433;49.976;8.342;2023-10-08T13:01:15;27.10;1.00
2851;DHT22;1433;49.976;8.342;2023-10-08T13:03:44;27.80;99.90
2851;DHT22;1433;49.976;8.342;2023-10-08T13:06:19;28.60;99.90
2851;DHT22;1433;49.976;8.342;2023-10-08T13:08:52;29.00;99.90
2851;DHT22;1433;49.976;8.342;2023-10-08T13:11:19;29.30;99.90
2851;DHT22;1433;49.976;8.342;2023-10-08T13:13:50;29.80;1.00
2851;DHT22;1433;49.976;8.342;2023-10-08T13:16:19;30.10;99.90
2851;DHT22;1433;49.976;8.342;2023-10-08T13:18:48;29.90;1.00
2851;DHT22;1433;49.976;8.342;2023-10-08T13:21:14;28.90;1.00
2851;DHT22;1433;49.976;8.342;2023-10-08T13:23:42;28.60;1.00
2851;DHT22;1433;49.976;8.342;2023-10-08T13:26:08;27.90;99.90
2851;DHT22;1433;49.976;8.342;2023-10-08T13:28:35;28.10;99.90
2851;DHT22;1433;49.976;8.342;2023-10-08T13:31:04;28.50;1.00
2851;DHT22;1433;49.976;8.342;2023-10-08T13:33:32;28.70;1.00
2851;DHT22;1433;49.976;8.342;2023-10-08T13:35:58;28.90;1.00
2851;DHT22;1433;49.976;8.342;2023-10-08T13:38:24;29.30;99.90
2851;DHT22;1433;49.976;8.342;2023-10-08T13:40:51;29.30;1.00
2851;DHT22;1433;49.976;8.342;2023-10-08T13:43:34;29.30;1.00
2851;DHT22;1433;49.976;8.342;2023-10-08T13:46:06;29.70;1.00
2851;DHT22;1433;49.976;8.342;2023-10-08T13:48:36;29.90;1.00
2851;DHT22;1433;49.976;8.342;2023-10-08T13:51:03;30.10;1.00
2851;DHT22;1433;49.976;8.342;2023-10-08T13:53:33;29.10;1.00
2851;DHT22;1433;49.976;8.342;2023-10-08T13:56:02;28.20;99.90
2851;DHT22;1433;49.976;8.342;2023-10-08T13:58:31;27.60;99.90
2851;DHT22;1433;49.976;8.342;2023-10-08T14:00:59;27.40;99.90
2851;DHT22;1433;49.976;8.342;2023-10-08T14:03:27;27.40;99.90
2851;DHT22;1433;49.976;8.342;2023-10-08T14:05:55;27.30;99.90
2851;DHT22;1433;49.976;8.342;2023-10-08T14:08:25;26.60;99.90
2851;DHT22;1433;49.976;8.342;2023-10-08T14:10:53;26.30;99.90
2851;DHT22;1433;49.976;8.342;2023-10-08T14:13:22;26.00;99.90
2851;DHT22;1433;49.976;8.342;2023-10-08T14:15:50;25.40;99.90
2851;DHT22;1433;49.976;8.342;2023-10-08T14:18:18;25.20;99.90
2851;DHT22;1433;49.976;8.342;2023-10-08T14:20:46;25.20;99.90
2851;DHT22;1433;49.976;8.342;2023-10-08T14:23:13;25.00;99.90
2851;DHT22;1433;49.976;8.342;2023-10-08T14:25:42;25.10;99.90
2851;DHT22;1433;49.976;8.342;2023-10-08T14:28:11;25.40;99.90
2851;DHT22;1433;49.976;8.342;2023-10-08T14:30:39;25.50;99.90
2851;DHT22;1433;49.976;8.342;2023-10-08T14:33:07;25.60;99.90
2851;DHT22;1433;49.976;8.342;2023-10-08T14:35:36;25.50;99.90
2851;DHT22;1433;49.976;8.342;2023-10-08T14:38:20;25.70;99.90
2851;DHT22;1433;49.976;8.342;2023-10-08T14:41:12;26.10;1.00
2851;DHT22;1433;49.976;8.342;2023-10-08T14:43:57;26.50;99.90
2851;DHT22;1433;49.976;8.342;2023-10-08T14:46:23;26.60;99.90
2851;DHT22;1433;49.976;8.342;2023-10-08T14:48:50;26.60;99.90
2851;DHT22;1433;49.976;8.342;2023-10-08T14:51:18;26.50;99.90
2851;DHT22;1433;49.976;8.342;2023-10-08T14:53:45;26.70;99.90
2851;DHT22;1433;49.976;8.342;2023-10-08T14:56:11;26.70;99.90
2851;DHT22;1433;49.976;8.342;2023-10-08T14:58:39;26.50;99.90
2851;DHT22;1433;49.976;8.342;2023-10-08T15:01:07;26.20;99.90
2851;DHT22;1433;49.976;8.342;2023-10-08T15:03:36;26.10;99.90
2851;DHT22;1433;49.976;8.342;2023-10-08T15:06:03;26.10;99.90
2851;DHT22;1433;49.976;8.342;2023-10-08T15:08:30;25.90;99.90
2851;DHT22;1433;49.976;8.342;2023-10-08T15:10:58;26.10;99.90
2851;DHT22;1433;49.976;8.342;2023-10-08T15:13:26;26.20;99.90
2851;DHT22;1433;49.976;8.342;2023-10-08T15:15:53;26.10;99.90
2851;DHT22;1433;49.976;8.342;2023-10-08T15:18:22;26.10;99.90
2851;DHT22;1433;49.976;8.342;2023-10-08T15:20:48;26.10;99.90
2851;DHT22;1433;49.976;8.342;2023-10-08T15:23:15;25.90;99.90
2851;DHT22;1433;49.976;8.342;2023-10-08T15:25:43;25.70;99.90
2851;DHT22;1433;49.976;8.342;2023-10-08T15:28:09;25.60;1.00
2851;DHT22;1433;49.976;8.342;2023-10-08T15:30:35;25.40;99.90
2851;DHT22;1433;49.976;8.342;2023-10-08T15:33:02;25.10;99.90
2851;DHT22;1433;49.976;8.342;2023-10-08T15:35:29;24.90;99.90
2851;DHT22;1433;49.976;8.342;2023-10-08T15:37:55;24.70;99.90
2851;DHT22;1433;49.976;8.342;2023-10-08T15:40:22;24.70;1.00
2851;DHT22;1433;49.976;8.342;2023-10-08T15:42:50;24.50;99.90
2851;DHT22;1433;49.976;8.342;2023-10-08T15:45:22;24.40;99.90
2851;DHT22;1433;49.976;8.342;2023-10-08T15:47:50;24.40;99.90
2851;DHT22;1433;49.976;8.342;2023-10-08T15:50:21;24.30;99.90
2851;DHT22;1433;49.976;8.342;2023-10-08T15:52:51;24.10;99.90
2851;DHT22;1433;49.976;8.342;2023-10-08T15:55:17;24.00;99.90
2851;DHT22;1433;49.976;8.342;2023-10-08T15:57:45;23.90;99.90
2851;DHT22;1433;49.976;8.342;2023-10-08T16:00:12;23.70;1.00
2851;DHT22;1433;49.976;8.342;2023-10-08T16:02:40;23.60;1.00
2851;DHT22;1433;49.976;8.342;2023-10-08T16:05:08;23.40;1.00
2851;DHT22;1433;49.976;8.342;2023-10-08T16:07:35;23.30;1.00
2851;DHT22;1433;49.976;8.342;2023-10-08T16:10:01;23.20;1.00
2851;DHT22;1433;49.976;8.342;2023-10-08T16:12:27;23.00;1.00
2851;DHT22;1433;49.976;8.342;2023-10-08T16:14:56;22.90;1.00
2851;DHT22;1433;49.976;8.342;2023-10-08T16:17:23;22.80;1.00
2851;DHT22;1433;49.976;8.342;2023-10-08T16:19:49;22.70;1.00
2851;DHT22;1433;49.976;8.342;2023-10-08T16:22:17;22.60;1.00
2851;DHT22;1433;49.976;8.342;2023-10-08T16:24:43;22.40;5.20
2851;DHT22;1433;49.976;8.342;2023-10-08T16:27:10;22.20;99.90